Time,TemperatureF,DewpointF,PressureIn,WindDirection,WindDirectionDegrees,WindSpeedMPH,WindSpeedGustMPH,Humidity,HourlyPrecipIn,Conditions,Clouds,dailyrainin,SoftwareType,DateUTC
2013-04-28 00:09:00,53.9,37.0,30.07,ESE,120,2.0,2.0,53,0.00,,,0.00,weatherlink.com 1.10,2013-04-28 04:09:00,
2013-04-28 00:24:00,53.6,37.0,30.07,ESE,123,0.0,3.0,53,0.00,,,0.00,weatherlink.com 1.10,2013-04-28 04:24:00,
2013-04-28 00:39:00,53.2,36.0,30.07,SE,129,1.0,3.0,53,0.00,,,0.00,weatherlink.com 1.10,2013-04-28 04:39:00,
2013-04-28 00:54:00,52.8,37.0,30.07,East,86,1.0,2.0,55,0.00,,,0.00,weatherlink.com 1.10,2013-04-28 04:54:00,
2013-04-28 01:09:00,52.4,36.0,30.07,East,83,1.0,3.0,55,0.00,,,0.00,weatherlink.com 1.10,2013-04-28 05:09:00,
2013-04-28 01:24:00,51.7,37.0,30.07,SE,142,1.0,1.0,57,0.00,,,0.00,weatherlink.com 1.10,2013-04-28 05:24:00,
2013-04-28 01:39:00,51.2,37.0,30.07,ESE,117,0.0,2.0,58,0.00,,,0.00,weatherlink.com 1.10,2013-04-28 05:39:00,
2013-04-28 01:54:00,51.1,37.0,30.06,ESE,111,1.0,3.0,58,0.00,,,0.00,weatherlink.com 1.10,2013-04-28 05:54:00,
2013-04-28 02:10:00,50.3,37.0,30.05,East,91,1.0,3.0,61,0.00,,,0.00,weatherlink.com 1.10,2013-04-28 06:10:00,
2013-04-28 02:25:00,49.1,36.0,30.05,East,83,1.0,1.0,62,0.00,,,0.00,weatherlink.com 1.10,2013-04-28 06:25:00,
2013-04-28 02:40:00,48.1,36.0,30.03,ENE,72,0.0,1.0,64,0.00,,,0.00,weatherlink.com 1.10,2013-04-28 06:40:00,
2013-04-28 02:55:00,46.9,36.0,30.03,ENE,72,0.0,0.0,67,0.00,,,0.00,weatherlink.com 1.10,2013-04-28 06:55:00,
2013-04-28 03:10:00,46.4,36.0,30.02,ENE,72,0.0,1.0,68,0.00,,,0.00,weatherlink.com 1.10,2013-04-28 07:10:00,
2013-04-28 03:25:00,47.2,36.0,30.01,ESE,110,0.0,1.0,66,0.00,,,0.00,weatherlink.com 1.10,2013-04-28 07:25:00,
2013-04-28 03:40:00,48.7,37.0,30.00,ESE,123,0.0,2.0,64,0.00,,,0.00,weatherlink.com 1.10,2013-04-28 07:40:00,
2013-04-28 03:55:00,50.6,37.0,30.00,East,100,2.0,4.0,59,0.00,,,0.00,weatherlink.com 1.10,2013-04-28 07:55:00,
2013-04-28 04:10:00,51.2,37.0,29.99,ENE,77,3.0,4.0,58,0.00,,,0.00,weatherlink.com 1.10,2013-04-28 08:10:00,
2013-04-28 04:25:00,51.4,36.0,29.99,East,94,2.0,4.0,57,0.00,,,0.00,weatherlink.com 1.10,2013-04-28 08:25:00,
2013-04-28 04:40:00,51.3,36.0,29.99,East,96,0.0,3.0,57,0.00,,,0.00,weatherlink.com 1.10,2013-04-28 08:40:00,
2013-04-28 04:55:00,50.9,37.0,29.99,East,100,0.0,1.0,59,0.00,,,0.00,weatherlink.com 1.10,2013-04-28 08:55:00,
2013-04-28 05:10:00,51.0,37.0,29.98,East,79,1.0,3.0,59,0.00,,,0.00,weatherlink.com 1.10,2013-04-28 09:10:00,
2013-04-28 05:25:00,51.3,37.0,29.98,East,90,1.0,2.0,58,0.00,,,0.00,weatherlink.com 1.10,2013-04-28 09:25:00,
2013-04-28 05:40:00,51.3,37.0,29.98,SE,133,1.0,2.0,58,0.00,,,0.00,weatherlink.com 1.10,2013-04-28 09:40:00,
2013-04-28 05:55:00,51.4,37.0,29.97,East,85,1.0,2.0,58,0.00,,,0.00,weatherlink.com 1.10,2013-04-28 09:55:00,
2013-04-28 06:10:00,51.5,37.0,29.97,East,86,1.0,3.0,58,0.00,,,0.00,weatherlink.com 1.10,2013-04-28 10:10:00,
2013-04-28 06:25:00,51.6,37.0,29.97,ENE,72,2.0,3.0,58,0.00,,,0.00,weatherlink.com 1.10,2013-04-28 10:25:00,
2013-04-28 06:40:00,51.7,37.0,29.97,East,100,2.0,4.0,58,0.00,,,0.00,weatherlink.com 1.10,2013-04-28 10:40:00,
2013-04-28 06:55:00,51.6,37.0,29.96,ESE,120,0.0,2.0,58,0.00,,,0.00,weatherlink.com 1.10,2013-04-28 10:55:00,
2013-04-28 07:10:00,51.8,38.0,29.96,East,79,1.0,4.0,59,0.00,,,0.00,weatherlink.com 1.10,2013-04-28 11:10:00,
2013-04-28 07:25:00,52.0,38.0,29.96,ENE,58,1.0,4.0,59,0.00,,,0.00,weatherlink.com 1.10,2013-04-28 11:25:00,
2013-04-28 07:40:00,52.3,39.0,29.96,ENE,69,1.0,3.0,60,0.00,,,0.00,weatherlink.com 1.10,2013-04-28 11:40:00,
2013-04-28 07:55:00,52.6,39.0,29.96,SE,133,1.0,3.0,60,0.00,,,0.00,weatherlink.com 1.10,2013-04-28 11:55:00,
2013-04-28 08:10:00,53.1,39.0,29.95,ESE,120,0.0,3.0,59,0.00,,,0.00,weatherlink.com 1.10,2013-04-28 12:10:00,
2013-04-28 08:25:00,53.6,39.0,29.95,SE,139,2.0,4.0,58,0.00,,,0.00,weatherlink.com 1.10,2013-04-28 12:25:00,
2013-04-28 08:40:00,54.1,40.0,29.95,ESE,110,0.0,3.0,59,0.00,,,0.00,weatherlink.com 1.10,2013-04-28 12:40:00,
2013-04-28 08:55:00,54.6,40.0,29.95,East,96,1.0,5.0,58,0.00,,,0.00,weatherlink.com 1.10,2013-04-28 12:55:00,
2013-04-28 09:10:00,55.3,40.0,29.95,East,101,2.0,5.0,57,0.00,,,0.00,weatherlink.com 1.10,2013-04-28 13:10:00,
2013-04-28 09:25:00,56.3,41.0,29.95,ENE,67,1.0,4.0,57,0.00,,,0.00,weatherlink.com 1.10,2013-04-28 13:25:00,
2013-04-28 09:40:00,57.6,42.0,29.94,SE,142,2.0,4.0,57,0.00,,,0.00,weatherlink.com 1.10,2013-04-28 13:40:00,
2013-04-28 09:56:00,59.1,44.0,29.94,SE,130,4.0,5.0,57,0.00,,,0.00,weatherlink.com 1.10,2013-04-28 13:56:00,
2013-04-28 10:11:00,59.7,44.0,29.93,ENE,74,2.0,6.0,56,0.00,,,0.00,weatherlink.com 1.10,2013-04-28 14:11:00,
2013-04-28 10:26:00,60.0,44.0,29.93,ESE,120,0.0,5.0,57,0.00,,,0.00,weatherlink.com 1.10,2013-04-28 14:26:00,
2013-04-28 10:41:00,60.2,45.0,29.93,ESE,120,1.0,4.0,57,0.00,,,0.00,weatherlink.com 1.10,2013-04-28 14:41:00,
2013-04-28 10:56:00,61.3,45.0,29.92,East,94,2.0,5.0,56,0.00,,,0.00,weatherlink.com 1.10,2013-04-28 14:56:00,
2013-04-28 11:11:00,62.8,47.0,29.91,ENE,77,9.0,11.0,56,0.00,,,0.00,weatherlink.com 1.10,2013-04-28 15:11:00,
2013-04-28 11:26:00,63.1,47.0,29.91,SSE,158,4.0,10.0,56,0.00,,,0.00,weatherlink.com 1.10,2013-04-28 15:26:00,
2013-04-28 11:41:00,62.7,47.0,29.91,SE,129,4.0,13.0,56,0.00,,,0.00,weatherlink.com 1.10,2013-04-28 15:41:00,
2013-04-28 11:56:00,62.7,47.0,29.91,South,181,6.0,10.0,57,0.00,,,0.00,weatherlink.com 1.10,2013-04-28 15:56:00,
2013-04-28 12:11:00,62.7,47.0,29.90,ENE,76,6.0,12.0,58,0.00,,,0.00,weatherlink.com 1.10,2013-04-28 16:11:00,
2013-04-28 12:26:00,62.3,48.0,29.90,SE,138,4.0,9.0,60,0.00,,,0.00,weatherlink.com 1.10,2013-04-28 16:26:00,
2013-04-28 12:41:00,61.2,50.0,29.90,SE,127,7.0,8.0,66,0.00,,,0.00,weatherlink.com 1.10,2013-04-28 16:41:00,
2013-04-28 12:56:00,60.7,50.0,29.89,East,79,2.0,6.0,69,0.00,,,0.00,weatherlink.com 1.10,2013-04-28 16:56:00,
2013-04-28 13:11:00,59.6,52.0,29.89,SE,130,2.0,10.0,76,0.00,,,0.00,weatherlink.com 1.10,2013-04-28 17:11:00,
2013-04-28 13:26:00,59.0,52.0,29.89,SE,127,3.0,7.0,78,0.00,,,0.00,weatherlink.com 1.10,2013-04-28 17:26:00,
2013-04-28 13:41:00,58.4,53.0,29.88,SSE,150,4.0,9.0,81,0.01,,,0.01,weatherlink.com 1.10,2013-04-28 17:41:00,
2013-04-28 13:56:00,57.6,53.0,29.88,SE,141,4.0,5.0,85,0.02,,,0.02,weatherlink.com 1.10,2013-04-28 17:56:00,
2013-04-28 14:11:00,57.2,53.0,29.87,SE,124,3.0,9.0,86,0.03,,,0.03,weatherlink.com 1.10,2013-04-28 18:11:00,
2013-04-28 14:26:00,56.2,53.0,29.88,ENE,63,5.0,8.0,88,0.04,,,0.04,weatherlink.com 1.10,2013-04-28 18:26:00,
2013-04-28 14:41:00,55.8,53.0,29.87,SE,127,1.0,7.0,90,0.04,,,0.05,weatherlink.com 1.10,2013-04-28 18:41:00,
2013-04-28 14:56:00,55.2,52.0,29.87,ESE,107,3.0,9.0,90,0.03,,,0.05,weatherlink.com 1.10,2013-04-28 18:56:00,
2013-04-28 15:11:00,54.8,52.0,29.87,ESE,109,5.0,9.0,90,0.02,,,0.05,weatherlink.com 1.10,2013-04-28 19:11:00,
2013-04-28 15:26:00,54.3,52.0,29.86,East,100,2.0,9.0,90,0.01,,,0.05,weatherlink.com 1.10,2013-04-28 19:26:00,
2013-04-28 15:41:00,54.3,52.0,29.86,NE,45,2.0,11.0,90,0.00,,,0.05,weatherlink.com 1.10,2013-04-28 19:41:00,
2013-04-28 15:56:00,54.4,52.0,29.86,ESE,115,6.0,9.0,90,0.00,,,0.05,weatherlink.com 1.10,2013-04-28 19:56:00,
2013-04-28 16:11:00,54.1,52.0,29.86,East,98,1.0,9.0,91,0.01,,,0.06,weatherlink.com 1.10,2013-04-28 20:11:00,
2013-04-28 16:26:00,53.7,52.0,29.86,East,79,4.0,5.0,93,0.02,,,0.07,weatherlink.com 1.10,2013-04-28 20:26:00,
2013-04-28 16:41:00,53.4,52.0,29.85,ENE,76,4.0,7.0,94,0.04,,,0.09,weatherlink.com 1.10,2013-04-28 20:41:00,
2013-04-28 16:56:00,53.5,52.0,29.85,ENE,74,5.0,5.0,95,0.04,,,0.09,weatherlink.com 1.10,2013-04-28 20:56:00,
2013-04-28 17:11:00,53.4,52.0,29.84,NE,45,3.0,7.0,94,0.05,,,0.11,weatherlink.com 1.10,2013-04-28 21:11:00,
2013-04-28 17:26:00,53.2,52.0,29.84,ESE,114,4.0,8.0,94,0.04,,,0.11,weatherlink.com 1.10,2013-04-28 21:26:00,
2013-04-28 17:41:00,53.3,52.0,29.84,East,97,2.0,8.0,94,0.03,,,0.12,weatherlink.com 1.10,2013-04-28 21:41:00,
2013-04-28 17:56:00,53.4,52.0,29.84,ESE,103,2.0,6.0,95,0.03,,,0.12,weatherlink.com 1.10,2013-04-28 21:56:00,
2013-04-28 18:11:00,53.4,52.0,29.84,ESE,107,4.0,5.0,95,0.01,,,0.12,weatherlink.com 1.10,2013-04-28 22:11:00,
2013-04-28 18:26:00,53.4,52.0,29.83,East,92,4.0,6.0,95,0.01,,,0.12,weatherlink.com 1.10,2013-04-28 22:26:00,
2013-04-28 18:42:00,53.3,52.0,29.83,ENE,64,5.0,6.0,95,0.00,,,0.12,weatherlink.com 1.10,2013-04-28 22:42:00,
2013-04-28 18:57:00,53.3,52.0,29.83,East,89,4.0,6.0,95,0.01,,,0.13,weatherlink.com 1.10,2013-04-28 22:57:00,
2013-04-28 19:12:00,53.2,52.0,29.82,ESE,104,2.0,7.0,96,0.01,,,0.13,weatherlink.com 1.10,2013-04-28 23:12:00,
2013-04-28 19:27:00,53.2,52.0,29.82,ESE,109,1.0,6.0,96,0.01,,,0.13,weatherlink.com 1.10,2013-04-28 23:27:00,
2013-04-28 19:42:00,53.1,52.0,29.82,East,86,2.0,6.0,96,0.02,,,0.14,weatherlink.com 1.10,2013-04-28 23:42:00,
2013-04-28 19:57:00,53.1,52.0,29.82,SE,128,2.0,6.0,96,0.01,,,0.14,weatherlink.com 1.10,2013-04-28 23:57:00,
2013-04-28 20:12:00,53.0,52.0,29.82,East,96,4.0,5.0,96,0.01,,,0.14,weatherlink.com 1.10,2013-04-29 00:12:00,
2013-04-28 20:27:00,53.0,52.0,29.82,ESE,103,1.0,5.0,96,0.01,,,0.14,weatherlink.com 1.10,2013-04-29 00:27:00,
2013-04-28 20:42:00,53.0,52.0,29.83,East,93,1.0,3.0,96,0.00,,,0.14,weatherlink.com 1.10,2013-04-29 00:42:00,
2013-04-28 20:57:00,52.9,52.0,29.83,ENE,62,1.0,2.0,96,0.00,,,0.14,weatherlink.com 1.10,2013-04-29 00:57:00,
2013-04-28 21:12:00,52.9,52.0,29.83,East,97,2.0,4.0,96,0.00,,,0.14,weatherlink.com 1.10,2013-04-29 01:12:00,
2013-04-28 21:27:00,53.0,52.0,29.83,East,82,1.0,4.0,96,0.00,,,0.14,weatherlink.com 1.10,2013-04-29 01:27:00,
2013-04-28 21:42:00,53.0,52.0,29.83,East,84,2.0,2.0,96,0.00,,,0.14,weatherlink.com 1.10,2013-04-29 01:42:00,
2013-04-28 21:57:00,53.0,52.0,29.83,SE,127,0.0,1.0,96,0.00,,,0.14,weatherlink.com 1.10,2013-04-29 01:57:00,
2013-04-28 22:12:00,53.0,52.0,29.84,East,88,1.0,1.0,97,0.00,,,0.14,weatherlink.com 1.10,2013-04-29 02:12:00,
2013-04-28 22:27:00,53.0,52.0,29.84,East,80,1.0,1.0,97,0.00,,,0.14,weatherlink.com 1.10,2013-04-29 02:27:00,
2013-04-28 22:42:00,52.9,52.0,29.84,ESE,104,0.0,1.0,97,0.01,,,0.15,weatherlink.com 1.10,2013-04-29 02:42:00,
2013-04-28 22:57:00,52.8,52.0,29.84,ESE,104,0.0,0.0,97,0.01,,,0.15,weatherlink.com 1.10,2013-04-29 02:57:00,
2013-04-28 23:12:00,52.8,52.0,29.83,ESE,104,0.0,0.0,97,0.01,,,0.15,weatherlink.com 1.10,2013-04-29 03:12:00,
2013-04-28 23:27:00,52.9,52.0,29.83,ESE,104,0.0,1.0,97,0.01,,,0.15,weatherlink.com 1.10,2013-04-29 03:27:00,
2013-04-28 23:42:00,52.9,52.0,29.82,ESE,104,0.0,0.0,97,0.00,,,0.15,weatherlink.com 1.10,2013-04-29 03:42:00,
2013-04-28 23:57:00,52.9,52.0,29.82,ESE,104,0.0,0.0,97,0.00,,,0.15,weatherlink.com 1.10,2013-04-29 03:57:00,